createdAt,value
2017-11-11T00:01:22.617Z,15.07
2017-11-11T00:03:50.152Z,12.03
2017-11-11T00:06:17.701Z,11.60
2017-11-11T00:08:45.248Z,21.73
2017-11-11T00:11:12.788Z,18.77
2017-11-11T00:13:40.337Z,15.33
2017-11-11T00:16:08.021Z,19.97
2017-11-11T00:18:35.821Z,11.10
2017-11-11T00:21:04.224Z,11.90
2017-11-11T00:23:31.787Z,15.47
2017-11-11T00:25:59.369Z,10.83
2017-11-11T00:28:27.816Z,18.03
2017-11-11T00:30:55.377Z,17.43
2017-11-11T00:33:23.691Z,9.50
2017-11-11T00:35:51.252Z,18.77
2017-11-11T00:38:18.785Z,12.90
2017-11-11T00:40:46.315Z,12.03
2017-11-11T00:43:13.897Z,10.40
2017-11-11T00:45:41.435Z,10.30
2017-11-11T00:48:09.032Z,14.57
2017-11-11T00:50:36.588Z,15.93
2017-11-11T00:53:04.114Z,13.60
2017-11-11T00:55:31.649Z,17.33
2017-11-11T00:57:59.205Z,18.27
2017-11-11T01:00:26.728Z,13.23
2017-11-11T01:02:55.112Z,11.03
2017-11-11T01:05:22.783Z,9.50
2017-11-11T01:07:50.369Z,8.83
2017-11-11T01:10:17.947Z,24.73
2017-11-11T01:12:45.512Z,18.20
2017-11-11T01:15:13.058Z,12.73
2017-11-11T01:17:40.600Z,10.73
2017-11-11T01:20:08.181Z,14.77
2017-11-11T01:22:35.708Z,17.53
2017-11-11T01:25:03.231Z,9.37
2017-11-11T01:27:30.791Z,18.13
2017-11-11T01:29:58.334Z,17.57
2017-11-11T01:32:25.877Z,12.77
2017-11-11T01:34:53.437Z,21.20
2017-11-11T01:37:20.966Z,17.60
2017-11-11T01:39:48.516Z,14.03
2017-11-11T01:42:16.071Z,14.97
2017-11-11T01:44:45.688Z,13.73
2017-11-11T01:47:13.417Z,20.03
2017-11-11T01:49:40.959Z,12.20
2017-11-11T01:52:08.486Z,14.40
2017-11-11T01:54:36.017Z,16.00
2017-11-11T01:57:03.576Z,19.57
2017-11-11T01:59:31.129Z,12.23
2017-11-11T02:01:58.675Z,16.80
2017-11-11T02:04:26.253Z,9.70
2017-11-11T02:06:54.565Z,15.03
2017-11-11T02:09:22.091Z,20.30
2017-11-11T02:11:50.139Z,13.50
2017-11-11T02:14:18.626Z,14.17
2017-11-11T02:16:46.576Z,19.33
2017-11-11T02:19:14.526Z,12.73
2017-11-11T02:21:43.011Z,13.90
2017-11-11T02:24:10.918Z,15.97
2017-11-11T02:26:38.863Z,12.43
2017-11-11T02:29:06.767Z,12.83
2017-11-11T02:31:34.470Z,11.57
2017-11-11T02:34:02.794Z,16.33
2017-11-11T02:36:30.326Z,18.17
2017-11-11T02:38:57.901Z,10.70
2017-11-11T02:41:25.510Z,18.53
2017-11-11T02:43:53.053Z,16.70
2017-11-11T02:46:20.601Z,12.33
2017-11-11T02:48:48.157Z,14.97
2017-11-11T02:51:15.713Z,9.67
2017-11-11T02:53:43.274Z,18.53
2017-11-11T02:56:10.845Z,18.50
2017-11-11T02:58:39.150Z,14.03
2017-11-11T03:01:06.703Z,12.97
2017-11-11T03:03:34.271Z,12.30
2017-11-11T03:06:02.055Z,18.77
2017-11-11T03:08:30.342Z,13.47
2017-11-11T03:10:57.896Z,12.30
2017-11-11T03:13:25.456Z,15.47
2017-11-11T03:15:52.980Z,18.73
2017-11-11T03:18:20.642Z,8.73
2017-11-11T03:20:48.311Z,13.13
2017-11-11T03:23:15.898Z,9.67
2017-11-11T03:25:43.564Z,12.87
2017-11-11T03:28:11.209Z,14.07
2017-11-11T03:30:38.807Z,13.33
2017-11-11T03:33:07.212Z,14.53
2017-11-11T03:35:34.835Z,12.60
2017-11-11T03:38:02.499Z,20.17
2017-11-11T03:40:30.133Z,18.00
2017-11-11T03:42:57.754Z,18.13
2017-11-11T03:45:26.142Z,14.40
2017-11-11T03:47:53.821Z,10.97
2017-11-11T03:50:21.459Z,15.93
2017-11-11T03:52:49.060Z,11.37
2017-11-11T03:55:16.812Z,19.47
2017-11-11T03:57:44.351Z,18.03
2017-11-11T04:00:11.872Z,14.33
2017-11-11T04:02:39.440Z,13.30
2017-11-11T04:05:06.961Z,10.27
2017-11-11T04:07:34.500Z,13.83
2017-11-11T04:10:02.072Z,16.10
2017-11-11T04:12:29.604Z,14.47
2017-11-11T04:14:57.138Z,18.13
2017-11-11T04:17:24.700Z,11.90
2017-11-11T04:19:52.740Z,18.73
2017-11-11T04:22:20.396Z,11.30
2017-11-11T04:24:48.021Z,8.37
2017-11-11T04:27:15.693Z,13.53
2017-11-11T04:29:43.253Z,12.90
2017-11-11T04:32:11.649Z,10.60
2017-11-11T04:34:39.278Z,8.40
2017-11-11T04:37:06.913Z,16.63
2017-11-11T04:39:34.644Z,12.07
2017-11-11T04:42:02.288Z,7.13
2017-11-11T04:44:29.918Z,13.93
2017-11-11T04:46:57.538Z,13.17
2017-11-11T04:49:25.152Z,9.57
2017-11-11T04:51:52.739Z,11.63
2017-11-11T04:54:20.349Z,17.37
2017-11-11T04:56:47.934Z,19.43
2017-11-11T04:59:15.514Z,15.93
2017-11-11T05:01:43.088Z,14.27
2017-11-11T05:04:10.609Z,19.30
2017-11-11T05:06:38.137Z,13.77
2017-11-11T05:09:05.692Z,14.03
2017-11-11T05:11:33.443Z,9.10
2017-11-11T05:14:00.961Z,8.97
2017-11-11T05:16:28.520Z,16.50
2017-11-11T05:18:56.057Z,18.20
2017-11-11T05:21:23.599Z,12.57
2017-11-11T05:23:51.152Z,13.10
2017-11-11T05:26:18.905Z,12.00
2017-11-11T05:28:46.958Z,13.53
2017-11-11T05:31:14.507Z,13.50
2017-11-11T05:33:42.033Z,10.13
2017-11-11T05:36:09.571Z,17.00
2017-11-11T05:38:37.149Z,10.27
2017-11-11T05:41:04.688Z,13.87
2017-11-11T05:43:32.215Z,6.53
2017-11-11T05:46:03.332Z,12.03
2017-11-11T05:48:30.860Z,9.90
2017-11-11T05:50:58.389Z,13.27
2017-11-11T05:53:26.702Z,16.30
2017-11-11T05:55:54.232Z,11.83
2017-11-11T05:58:21.760Z,21.53
2017-11-11T06:00:49.318Z,12.80
2017-11-11T06:03:16.877Z,15.90
2017-11-11T06:05:44.397Z,12.73
2017-11-11T06:08:11.961Z,15.23
2017-11-11T06:10:39.733Z,23.27
2017-11-11T06:13:07.302Z,16.90
2017-11-11T06:15:35.688Z,15.93
2017-11-11T06:18:03.216Z,20.10
2017-11-11T06:20:31.513Z,13.03
2017-11-11T06:22:59.077Z,21.73
2017-11-11T06:25:27.089Z,13.67
2017-11-11T06:27:54.615Z,20.50
2017-11-11T06:30:22.932Z,25.50
2017-11-11T06:32:51.322Z,17.20
2017-11-11T06:35:19.735Z,15.00
2017-11-11T06:37:47.437Z,16.47
2017-11-11T06:40:15.023Z,20.60
2017-11-11T06:42:42.583Z,18.90
2017-11-11T06:45:10.135Z,16.23
2017-11-11T06:47:37.702Z,14.67
2017-11-11T06:50:05.223Z,16.70
2017-11-11T06:52:32.776Z,13.93
2017-11-11T06:55:00.321Z,17.30
2017-11-11T06:57:28.275Z,14.53
2017-11-11T06:59:55.902Z,12.77
2017-11-11T07:02:23.544Z,18.53
2017-11-11T07:04:51.064Z,13.00
2017-11-11T07:07:19.838Z,18.03
2017-11-11T07:09:47.685Z,16.37
2017-11-11T07:12:15.259Z,15.80
2017-11-11T07:14:42.826Z,11.67
2017-11-11T07:17:10.987Z,17.87
2017-11-11T07:19:38.633Z,22.53
2017-11-11T07:22:06.449Z,15.10
2017-11-11T07:24:36.496Z,18.27
2017-11-11T07:27:06.374Z,29.53
2017-11-11T07:29:36.736Z,21.03
2017-11-11T07:32:06.470Z,17.13
2017-11-11T07:34:34.062Z,19.13
2017-11-11T07:37:01.590Z,24.30
2017-11-11T07:39:29.248Z,16.40
2017-11-11T07:41:57.642Z,16.90
2017-11-11T07:44:25.274Z,22.60
2017-11-11T07:46:53.672Z,20.83
2017-11-11T07:49:21.299Z,20.13
2017-11-11T07:51:48.887Z,29.10
2017-11-11T07:54:16.452Z,32.33
2017-11-11T07:56:43.980Z,24.20
2017-11-11T07:59:12.444Z,29.67
2017-11-11T08:01:40.088Z,27.37
2017-11-11T08:04:07.740Z,24.27
2017-11-11T08:06:35.362Z,25.27
2017-11-11T08:09:03.044Z,18.93
2017-11-11T08:11:31.385Z,20.53
2017-11-11T08:13:58.943Z,21.90
2017-11-11T08:16:29.701Z,19.53
2017-11-11T08:19:00.815Z,10.33
2017-11-11T08:21:28.567Z,17.77
2017-11-11T08:23:56.278Z,18.47
2017-11-11T08:26:23.960Z,18.07
2017-11-11T08:28:51.564Z,22.97
2017-11-11T08:31:19.216Z,26.37
2017-11-11T08:33:46.753Z,19.13
2017-11-11T08:36:21.338Z,22.53
2017-11-11T08:38:49.068Z,15.10
2017-11-11T08:41:17.005Z,19.47
2017-11-11T08:43:45.034Z,22.13
2017-11-11T08:46:12.673Z,22.50
2017-11-11T08:48:40.719Z,20.83
2017-11-11T08:51:09.433Z,20.63
2017-11-11T08:53:37.363Z,17.67
2017-11-11T08:56:06.249Z,17.17
2017-11-11T08:58:33.903Z,22.17
2017-11-11T09:01:02.137Z,25.03
2017-11-11T09:03:29.815Z,28.03
2017-11-11T09:05:57.774Z,27.40
2017-11-11T09:08:25.496Z,23.10
2017-11-11T09:10:53.513Z,16.40
2017-11-11T09:13:21.238Z,16.80
2017-11-11T09:15:53.244Z,23.33
2017-11-11T09:18:21.642Z,19.27
2017-11-11T09:20:49.812Z,15.30
2017-11-11T09:23:18.135Z,21.60
2017-11-11T09:25:46.850Z,16.07
2017-11-11T09:28:14.540Z,17.17
2017-11-11T09:30:43.640Z,15.47
2017-11-11T09:33:14.009Z,15.20
2017-11-11T09:35:45.904Z,12.10
2017-11-11T09:38:15.824Z,12.13
2017-11-11T09:40:45.196Z,21.87
2017-11-11T09:43:13.251Z,19.90
2017-11-11T09:45:42.337Z,20.43
2017-11-11T09:48:11.244Z,14.67
2017-11-11T09:50:39.044Z,17.30
2017-11-11T09:53:06.630Z,21.90
2017-11-11T09:55:34.475Z,15.30
2017-11-11T09:58:02.003Z,22.80
2017-11-11T10:00:29.609Z,27.87
2017-11-11T10:02:57.917Z,22.50
2017-11-11T10:05:25.471Z,16.77
2017-11-11T10:07:53.054Z,20.57
2017-11-11T10:10:28.067Z,38.40
2017-11-11T10:12:56.288Z,19.90
2017-11-11T10:15:23.937Z,18.53
2017-11-11T10:17:51.562Z,21.00
2017-11-11T10:20:21.434Z,22.50
2017-11-11T10:22:49.996Z,15.97
2017-11-11T10:25:18.348Z,29.70
2017-11-11T10:27:46.711Z,29.30
2017-11-11T10:30:15.043Z,22.07
2017-11-11T10:32:43.488Z,20.30
2017-11-11T10:35:11.483Z,23.13
2017-11-11T10:37:39.144Z,24.73
2017-11-11T10:40:07.615Z,25.90
2017-11-11T10:42:36.252Z,20.43
2017-11-11T10:45:04.659Z,19.63
2017-11-11T10:47:32.436Z,18.00
2017-11-11T10:49:59.999Z,20.93
2017-11-11T10:52:27.547Z,16.33
2017-11-11T10:54:55.875Z,15.33
2017-11-11T10:57:23.937Z,22.77
2017-11-11T10:59:52.542Z,17.83
2017-11-11T11:02:20.603Z,11.67
2017-11-11T11:04:50.302Z,14.77
2017-11-11T11:07:21.290Z,9.30
2017-11-11T11:09:50.884Z,6.77
2017-11-11T11:12:19.691Z,7.43
2017-11-11T11:14:48.573Z,2.30
2017-11-11T11:17:16.668Z,4.97
2017-11-11T11:19:44.697Z,6.60
2017-11-11T11:22:12.673Z,13.57
2017-11-11T11:24:41.218Z,5.50
2017-11-11T11:27:08.750Z,8.80
2017-11-11T11:29:36.602Z,7.50
2017-11-11T11:32:04.741Z,9.37
2017-11-11T11:34:32.807Z,10.13
2017-11-11T11:37:00.886Z,8.73
2017-11-11T11:39:28.522Z,14.63
2017-11-11T11:41:56.059Z,19.53
2017-11-11T11:44:23.870Z,21.63
2017-11-11T11:46:51.460Z,21.57
2017-11-11T11:49:18.985Z,11.37
2017-11-11T11:51:46.510Z,14.97
2017-11-11T11:54:14.303Z,11.47
2017-11-11T11:56:41.818Z,9.40
2017-11-11T11:59:09.354Z,11.00
2017-11-11T12:01:37.155Z,14.93
2017-11-11T12:04:04.688Z,10.33
2017-11-11T12:06:32.273Z,11.77
2017-11-11T12:08:59.872Z,10.50
2017-11-11T12:11:27.500Z,8.70
2017-11-11T12:13:55.124Z,12.93
2017-11-11T12:16:22.677Z,7.77
2017-11-11T12:18:50.211Z,16.33
2017-11-11T12:21:17.973Z,11.87
2017-11-11T12:23:45.521Z,8.83
2017-11-11T12:26:13.043Z,11.10
2017-11-11T12:28:40.684Z,9.90
2017-11-11T12:31:08.293Z,6.67
2017-11-11T12:33:36.681Z,11.87
2017-11-11T12:36:04.248Z,6.67
2017-11-11T12:38:31.780Z,11.87
2017-11-11T12:41:00.088Z,7.23
2017-11-11T12:43:27.627Z,10.57
2017-11-11T12:45:55.253Z,8.80
2017-11-11T12:48:23.041Z,6.67
2017-11-11T12:50:50.641Z,6.60
2017-11-11T12:53:18.201Z,5.70
2017-11-11T12:55:45.744Z,13.57
2017-11-11T12:58:13.289Z,13.03
2017-11-11T13:00:41.592Z,10.20
2017-11-11T13:03:09.280Z,10.37
2017-11-11T13:05:36.915Z,7.43
2017-11-11T13:08:05.201Z,6.97
2017-11-11T13:10:32.758Z,12.30
2017-11-11T13:13:00.290Z,10.10
2017-11-11T13:15:27.855Z,11.53
2017-11-11T13:17:55.376Z,8.43
2017-11-11T13:20:22.901Z,10.43
2017-11-11T13:22:50.534Z,8.80
2017-11-11T13:25:18.491Z,5.77
2017-11-11T13:27:46.379Z,10.90
2017-11-11T13:30:14.387Z,13.20
2017-11-11T13:32:43.341Z,12.37
2017-11-11T13:35:11.144Z,9.73
2017-11-11T13:37:41.101Z,10.73
2017-11-11T13:40:09.313Z,14.97
2017-11-11T13:42:37.459Z,10.70
2017-11-11T13:45:05.106Z,16.83
2017-11-11T13:47:32.734Z,13.88
2017-11-11T13:50:00.467Z,14.50
2017-11-11T13:52:28.068Z,12.95
2017-11-11T13:54:56.872Z,10.90
2017-11-11T13:57:24.705Z,9.00
2017-11-11T13:59:52.636Z,31.90
2017-11-11T14:02:20.633Z,15.53
2017-11-11T14:04:49.371Z,11.63
2017-11-11T14:07:17.383Z,14.37
2017-11-11T14:09:45.292Z,21.20
2017-11-11T14:12:13.672Z,17.67
2017-11-11T14:14:41.699Z,11.60
2017-11-11T14:17:09.929Z,14.17
2017-11-11T14:19:37.846Z,15.10
2017-11-11T14:22:05.903Z,12.83
2017-11-11T14:24:35.666Z,11.73
2017-11-11T14:27:03.758Z,11.10
2017-11-11T14:29:31.858Z,12.17
2017-11-11T14:32:00.232Z,12.83
2017-11-11T14:34:28.014Z,8.00
2017-11-11T14:36:55.928Z,22.20
2017-11-11T14:39:23.816Z,16.07
2017-11-11T14:41:51.587Z,11.73
2017-11-11T14:44:19.668Z,7.87
2017-11-11T14:46:47.678Z,11.87
2017-11-11T14:49:15.724Z,10.37
2017-11-11T14:51:43.487Z,11.30
2017-11-11T14:54:11.436Z,12.50
2017-11-11T14:56:39.924Z,13.03
2017-11-11T14:59:08.123Z,9.63
2017-11-11T15:01:36.851Z,6.43
2017-11-11T15:04:04.584Z,36.73
2017-11-11T15:06:32.717Z,10.40
2017-11-11T15:09:00.691Z,8.47
2017-11-11T15:11:28.942Z,5.13
2017-11-11T15:13:57.446Z,7.47
2017-11-11T15:16:25.009Z,4.07
2017-11-11T15:18:53.134Z,5.07
2017-11-11T15:21:22.037Z,5.73
2017-11-11T15:23:50.816Z,3.10
2017-11-11T15:26:22.955Z,5.00
2017-11-11T15:28:51.282Z,3.87
2017-11-11T15:31:19.521Z,3.37
2017-11-11T15:33:47.505Z,4.20
2017-11-11T15:36:15.587Z,3.73
2017-11-11T15:38:44.537Z,5.27
2017-11-11T15:41:12.842Z,7.13
2017-11-11T15:43:41.277Z,7.80
2017-11-11T15:46:09.286Z,5.93
2017-11-11T15:48:38.431Z,5.20
2017-11-11T15:51:09.143Z,4.30
2017-11-11T15:53:40.304Z,3.20
2017-11-11T15:56:11.475Z,3.23
2017-11-11T15:58:41.164Z,3.60
2017-11-11T16:01:09.794Z,4.63
2017-11-11T16:03:38.847Z,4.17
2017-11-11T16:06:07.116Z,4.20
2017-11-11T16:08:36.302Z,4.00
2017-11-11T16:11:04.989Z,11.30
2017-11-11T16:13:33.703Z,6.07
2017-11-11T16:19:01.268Z,40.97
2017-11-11T16:21:31.097Z,40.17
2017-11-11T16:24:00.408Z,31.53
2017-11-11T16:26:28.623Z,14.63
2017-11-11T16:28:57.345Z,46.87
2017-11-11T16:31:26.198Z,31.37
2017-11-11T16:33:53.887Z,20.17
2017-11-11T16:36:21.993Z,22.67
2017-11-11T16:38:49.756Z,26.13
2017-11-11T16:41:18.385Z,18.93
2017-11-11T16:43:46.218Z,18.50
2017-11-11T16:46:14.776Z,14.20
2017-11-11T16:48:43.113Z,29.67
2017-11-11T16:51:11.538Z,19.03
2017-11-11T16:53:39.183Z,18.60
2017-11-11T16:56:06.757Z,18.63
2017-11-11T16:58:34.412Z,14.53
2017-11-11T17:01:02.782Z,21.27
2017-11-11T17:03:31.162Z,17.20
2017-11-11T17:05:58.763Z,16.93
2017-11-11T17:08:26.441Z,22.07
2017-11-11T17:10:54.841Z,24.13
2017-11-11T17:13:22.433Z,18.63
2017-11-11T17:15:50.801Z,21.40
2017-11-11T17:18:19.191Z,19.03
2017-11-11T17:20:46.814Z,23.47
2017-11-11T17:23:14.486Z,24.03
2017-11-11T17:25:42.116Z,25.13
2017-11-11T17:28:10.468Z,22.13
2017-11-11T17:30:38.104Z,20.37
2017-11-11T17:33:05.690Z,19.37
2017-11-11T17:35:33.321Z,15.10
2017-11-11T17:38:01.705Z,14.77
2017-11-11T17:40:29.294Z,12.93
2017-11-11T17:42:56.933Z,12.30
2017-11-11T17:45:24.552Z,12.83
2017-11-11T17:47:52.182Z,17.43
2017-11-11T17:50:19.791Z,13.23
2017-11-11T17:52:47.523Z,11.90
2017-11-11T17:55:15.337Z,13.03
2017-11-11T17:57:42.942Z,15.03
2017-11-11T18:00:10.596Z,13.63
2017-11-11T18:02:38.193Z,14.37
2017-11-11T18:05:05.852Z,15.13
2017-11-11T18:07:33.472Z,20.83
2017-11-11T18:10:01.112Z,19.13
2017-11-11T18:12:29.538Z,16.40
2017-11-11T18:14:57.166Z,11.80
2017-11-11T18:17:24.769Z,9.90
2017-11-11T18:19:52.393Z,13.37
2017-11-11T18:22:20.773Z,8.57
2017-11-11T18:24:48.401Z,8.80
2017-11-11T18:27:16.004Z,8.37
2017-11-11T18:29:43.645Z,8.63
2017-11-11T18:32:11.171Z,7.53
2017-11-11T18:34:38.837Z,8.37
2017-11-11T18:37:06.489Z,7.00
2017-11-11T18:39:34.076Z,9.33
2017-11-11T18:42:02.481Z,5.10
2017-11-11T18:44:30.068Z,5.43
2017-11-11T18:46:57.670Z,5.10
2017-11-11T18:49:25.302Z,5.70
2017-11-11T18:51:52.917Z,4.70
2017-11-11T18:54:21.304Z,5.00
2017-11-11T18:56:48.935Z,4.93
2017-11-11T18:59:16.545Z,4.73
2017-11-11T19:01:44.153Z,5.73
2017-11-11T19:04:11.758Z,5.77
2017-11-11T19:06:39.287Z,6.37
2017-11-11T19:09:06.852Z,5.20
2017-11-11T19:11:34.883Z,4.87
2017-11-11T19:14:02.506Z,7.80
2017-11-11T19:16:30.091Z,7.67
2017-11-11T19:18:57.627Z,5.27
2017-11-11T19:21:25.304Z,4.83
2017-11-11T19:23:53.670Z,4.30
2017-11-11T19:26:21.285Z,4.40
2017-11-11T19:28:48.943Z,6.17
2017-11-11T19:31:22.740Z,6.00
2017-11-11T19:33:51.128Z,9.43
2017-11-11T19:36:18.710Z,9.83
2017-11-11T19:38:46.342Z,12.33
2017-11-11T19:41:13.938Z,8.30
2017-11-11T19:43:41.552Z,6.53
2017-11-11T19:46:09.163Z,8.30
2017-11-11T19:48:36.885Z,5.33
2017-11-11T19:51:04.514Z,4.03
2017-11-11T19:53:32.087Z,4.70
2017-11-11T19:56:00.504Z,15.30
2017-11-11T19:58:28.127Z,17.43
2017-11-11T20:00:55.760Z,15.93
2017-11-11T20:03:23.367Z,15.80
2017-11-11T20:05:50.992Z,10.50
2017-11-11T20:08:18.617Z,7.70
2017-11-11T20:10:46.248Z,7.93
2017-11-11T20:13:13.881Z,7.33
2017-11-11T20:15:41.504Z,8.07
2017-11-11T20:18:09.101Z,7.57
2017-11-11T20:20:36.708Z,5.73
2017-11-11T20:23:04.325Z,9.80
2017-11-11T20:25:32.014Z,8.00
2017-11-11T20:28:00.373Z,6.67
2017-11-11T20:30:27.996Z,5.50
2017-11-11T20:32:55.603Z,5.27
2017-11-11T20:35:23.210Z,4.57
2017-11-11T20:37:51.600Z,5.23
2017-11-11T20:40:19.209Z,6.50
2017-11-11T20:42:46.815Z,5.70
2017-11-11T20:45:14.413Z,5.97
2017-11-11T20:47:42.084Z,5.63
2017-11-11T20:50:10.787Z,5.40
2017-11-11T20:52:38.482Z,5.77
2017-11-11T20:55:09.717Z,6.30
2017-11-11T20:57:38.390Z,5.60
2017-11-11T21:00:06.034Z,6.03
2017-11-11T21:02:34.430Z,6.73
2017-11-11T21:05:02.059Z,6.47
2017-11-11T21:07:29.696Z,5.27
2017-11-11T21:09:57.488Z,4.80
2017-11-11T21:12:25.248Z,4.80
2017-11-11T21:14:53.658Z,5.83
2017-11-11T21:17:21.281Z,6.57
2017-11-11T21:19:48.918Z,6.97
2017-11-11T21:22:16.552Z,6.83
2017-11-11T21:24:44.312Z,10.40
2017-11-11T21:27:11.920Z,13.77
2017-11-11T21:29:39.609Z,11.10
2017-11-11T21:32:07.293Z,10.40
2017-11-11T21:34:35.665Z,9.30
2017-11-11T21:37:03.350Z,9.43
2017-11-11T21:39:31.056Z,9.17
2017-11-11T21:41:58.742Z,9.97
2017-11-11T21:44:27.731Z,9.67
2017-11-11T21:46:56.434Z,13.40
2017-11-11T21:49:24.094Z,9.70
2017-11-11T21:51:53.129Z,11.57
2017-11-11T21:54:20.798Z,11.00
2017-11-11T21:59:49.759Z,11.87
2017-11-11T22:02:17.470Z,11.40
2017-11-11T22:04:45.441Z,13.63
2017-11-11T22:07:13.140Z,11.10
2017-11-11T22:09:41.101Z,16.23
2017-11-11T22:12:08.796Z,13.03
2017-11-11T22:14:36.408Z,14.20
2017-11-11T22:17:04.040Z,16.27
2017-11-11T22:19:31.767Z,20.60
2017-11-11T22:21:59.386Z,15.00
2017-11-11T22:24:27.515Z,15.10
2017-11-11T22:26:55.207Z,18.93
2017-11-11T22:29:23.192Z,19.83
2017-11-11T22:31:51.013Z,24.37
2017-11-11T22:34:18.692Z,19.50
2017-11-11T22:36:46.306Z,20.57
2017-11-11T22:39:14.336Z,16.03
2017-11-11T22:41:41.958Z,18.93
2017-11-11T22:44:09.586Z,19.33
2017-11-11T22:46:38.000Z,20.63
2017-11-11T22:49:05.635Z,16.70
2017-11-11T22:51:33.302Z,19.20
2017-11-11T22:54:00.929Z,17.63
2017-11-11T22:56:28.544Z,19.07
2017-11-11T22:58:56.246Z,15.43
2017-11-11T23:01:23.842Z,17.37
2017-11-11T23:03:51.469Z,18.70
2017-11-11T23:06:19.841Z,18.07
2017-11-11T23:08:48.223Z,16.70
2017-11-11T23:11:15.859Z,14.43
2017-11-11T23:13:44.233Z,15.23
2017-11-11T23:16:11.888Z,19.37
2017-11-11T23:18:39.511Z,15.07
2017-11-11T23:21:07.911Z,14.70
2017-11-11T23:23:35.647Z,20.03
2017-11-11T23:26:03.295Z,20.87
2017-11-11T23:28:30.901Z,22.40
2017-11-11T23:30:59.288Z,20.93
2017-11-11T23:33:26.958Z,22.47
2017-11-11T23:35:54.599Z,24.60
2017-11-11T23:38:22.203Z,22.30
2017-11-11T23:40:50.614Z,24.40
2017-11-11T23:43:18.218Z,22.47
2017-11-11T23:45:45.848Z,22.20
2017-11-11T23:48:13.444Z,21.73
2017-11-11T23:50:41.077Z,20.83
2017-11-11T23:53:09.441Z,22.43
2017-11-11T23:55:37.077Z,22.83
2017-11-11T23:58:04.668Z,33.87
